Airfield :
LOGIN :

Register | Disclaimer

   EN    FR    IT 

 










Legend :    VFR   Marginal VFR   IFR   Intensive IFR   Very Intensive IFR
Visi :
Ceiling :
>= 8 km
>= 3000ft
5 to 8 km
1000 to 3000 ft
1500m to 5 km
500 to 1000 ft
800 to 1500m
200 to 500 ft
< 800m
< 200 ft
Symbols :   Thunderstorms  Fog  Heavy snow  Heavy precipitations  Wind > 20 kt
SIGMETs :     Misc.  Thunderstorms  Icing  Turbulence  Mountain Waves  Volcanic Ashes







- Airport Elevation : 614 ft
- IATA code : CRL


EBCI - Charleroi

CURRENT METAR :
  • 161720Z 28004KT CAVOK 25/13 Q1014 NOSIG

EXPIRED METARs :
  • 161650Z 26005KT 220V310 CAVOK 26/14 Q1014 NOSIG
  • 161620Z 23006KT 210V270 9999 FEW040 27/13 Q1014 NOSIG
  • 161550Z 26006KT 220V320 9999 FEW040 27/13 Q1015 NOSIG
  • 161520Z VRB05KT 9999 FEW040 26/14 Q1015 NOSIG
  • 161450Z 26004KT 210V320 9999 FEW040 26/14 Q1015 NOSIG
  • 161420Z 23005KT 190V290 9999 FEW040 26/14 Q1015 NOSIG

TAF TAF EBCI
Valid from the 16 at 12:00 until the 17 at 18:00 UTC


161100Z 1612/1718 23007KT 9999 FEW035
TEMPO 1617/1622 33010G20KT
TEMPO 1622/1704 VRB18G30KT 2500 TSRA BKN007 BKN014CB
TEMPO 1704/1708 3500 BR SCT004 BKN006
No reported NOTAMs for that airfield.



MET'MAP, your aeronautical weather chart ! - Copyright ORBIFLY December 2007 - Disclaimer

ORBIFLY MET'MAP TEAM :

Programming & Development : Alexandra Zaïnal
Concept & Development : Baudouin d'Aumeries
Co-Development & Prog : Marc-Olivier Méhu
Technical & hardware support : Manuel Goepfert

Contact : metmap@orbifly.com




SOURCES & CREDITS :

   NOAA